Himsel Army Airfld, Nineveh,, IN

11:41 PM EDT on April 30, 2017 (GMT -0400)
Himsel Army Airfld, Nineveh,

Weather History for K1II - March, 2014

Change the Weather History Date:

Saturday, March 29, 2014

  Actual Average (KBAK) Record (KBAK)
Temperature  
Mean Temperature 38 °F -  
Max Temperature 41 °F 56 °F 82 °F (1998)
Min Temperature 35 °F 38 °F 23 °F (2015)
Degree Days  
Heating Degree Days 27    
Moisture  
Dew Point 34 °F    
Average Humidity 87    
Maximum Humidity 93    
Minimum Humidity 75    
Precipitation  
Precipitation 0.00 in - - ()
Sea Level Pressure  
Sea Level Pressure 30.06 in    
Wind  
Wind Speed 9 mph (North)    
Max Wind Speed 20 mph    
Max Gust Speed 25 mph    
Visibility 8 miles    
Events Rain    
Averages and records for this station are not official NWS values.
T = Trace of Precipitation, MM = Missing Value Source: NWS Daily Summary

Daily Weather History Graph

Daily Weather History Graph

Search for Another Location

Airport or City:

Trip Planner

Search our weather history database for the weather conditions in past years. The results will help you decide how hot, cold, wet, or windy it might be!

Date:

Astronomy

Mar. 29, 2014 Rise Set
Actual Time 7:33 AM EDT 8:05 PM EDT
Civil Twilight 7:06 AM EDT 8:32 PM EDT
Nautical Twilight 6:34 AM EDT 9:03 PM EDT
Astronomical Twilight 6:02 AM EDT 9:36 PM EDT
Moon 6:41 AM EDT (3/29) 7:09 PM EDT (3/29)
Length of Visible Light 13h 25m
Length of Day
12h 31m
Waning Crescent, 2% of the Moon is Illuminated
Mar 29
Waning Crescent
Mar 30
New
Apr 7
First Quarter
Apr 15
Full
Apr 22
Last Quarter

Hourly Weather History & Observations

Time (EDT) Temp. Windchill Dew Point Humidity Pressure Visibility Wind Dir Wind Speed Gust Speed Precip Events Conditions
12:15 AM 41.0 °F 36.4 °F 35.6 °F 81% 30.08 in 10.0 mi NE 6.9 mph - N/A   Unknown
12:35 AM 41.0 °F 37.1 °F 35.6 °F 81% 30.10 in 10.0 mi NE 5.8 mph - N/A   Unknown
12:55 AM 39.2 °F 35.9 °F 35.6 °F 87% 30.09 in 10.0 mi NNE 4.6 mph - N/A   Unknown
1:15 AM 41.0 °F 38.0 °F 33.8 °F 76% 30.09 in 10.0 mi North 4.6 mph - N/A   Unknown
1:35 AM 39.2 °F - 33.8 °F 81% 30.09 in 10.0 mi Calm Calm - N/A   Unknown
2:15 AM 39.2 °F 35.9 °F 33.8 °F 81% 30.07 in 10.0 mi NNE 4.6 mph - N/A   Unknown
2:35 AM 39.2 °F 35.9 °F 33.8 °F 81% 30.07 in 10.0 mi North 4.6 mph - N/A   Unknown
2:55 AM 39.2 °F 35.0 °F 33.8 °F 81% 30.07 in 10.0 mi North 5.8 mph - N/A   Unknown
3:15 AM 39.2 °F 35.0 °F 33.8 °F 81% 30.06 in 10.0 mi NNE 5.8 mph - N/A   Unknown
3:35 AM 39.2 °F 35.0 °F 33.8 °F 81% 30.04 in 10.0 mi North 5.8 mph - N/A   Unknown
3:55 AM 39.2 °F 35.0 °F 33.8 °F 81% 30.04 in 10.0 mi North 5.8 mph - N/A   Unknown
4:15 AM 37.4 °F 33.8 °F 33.8 °F 87% 30.02 in 10.0 mi NNE 4.6 mph - N/A   Unknown
4:35 AM 37.4 °F 32.1 °F 33.8 °F 87% 30.01 in 10.0 mi North 6.9 mph - N/A Rain Rain
4:55 AM 37.4 °F 28.9 °F 35.6 °F 93% 30.02 in 3.0 mi NNW 13.8 mph - N/A Rain Heavy Rain
5:15 AM 37.4 °F 30.8 °F 35.6 °F 93% 30.02 in 2.5 mi NNW 9.2 mph - N/A Rain Rain
5:35 AM 37.4 °F 32.1 °F 35.6 °F 93% 30.04 in 1.8 mi NNW 6.9 mph - N/A Rain Rain
5:55 AM 37.4 °F 30.3 °F 35.6 °F 93% 30.04 in 1.8 mi NNW 10.4 mph - N/A Rain Rain
6:15 AM 37.4 °F 32.1 °F 35.6 °F 93% 30.05 in 1.5 mi NNW 6.9 mph - N/A Rain Heavy Rain
6:35 AM 37.4 °F 30.3 °F 35.6 °F 93% 30.03 in 1.8 mi North 10.4 mph - N/A Rain Rain
6:55 AM 37.4 °F 29.8 °F 35.6 °F 93% 30.03 in 2.0 mi North 11.5 mph - N/A Rain Rain
7:15 AM 37.4 °F 30.3 °F 35.6 °F 93% 30.02 in 2.5 mi North 10.4 mph - N/A Rain Rain
7:35 AM 37.4 °F 30.8 °F 35.6 °F 93% 30.01 in 2.0 mi North 9.2 mph - N/A Rain Rain
7:55 AM 37.4 °F 29.8 °F 35.6 °F 93% 30.01 in 0.8 mi North 11.5 mph - N/A Rain Rain
8:15 AM 35.6 °F 26.2 °F 33.8 °F 93% 30.01 in 3.0 mi North 15.0 mph 18.4 mph N/A Rain Rain
8:35 AM 35.6 °F 27.5 °F 33.8 °F 93% 30.01 in 3.0 mi North 11.5 mph 19.6 mph N/A Rain Rain
8:55 AM 35.6 °F 28.0 °F 33.8 °F 93% 30.01 in 3.0 mi North 10.4 mph - N/A Rain Rain
9:15 AM 37.4 °F 29.8 °F 33.8 °F 87% 30.01 in 3.0 mi North 11.5 mph - N/A Rain Rain
9:35 AM 37.4 °F 28.9 °F 35.6 °F 93% 30.02 in 3.0 mi North 13.8 mph 18.4 mph N/A Rain Rain
9:55 AM 37.4 °F 29.8 °F 35.6 °F 93% 30.02 in 4.0 mi North 11.5 mph 20.7 mph N/A Rain Light Rain
10:15 AM 37.4 °F 29.3 °F 35.6 °F 93% 30.02 in 5.0 mi North 12.7 mph 20.7 mph N/A Rain Light Rain
10:35 AM 37.4 °F 29.3 °F 35.6 °F 93% 30.03 in 5.0 mi North 12.7 mph 20.7 mph N/A Rain Light Rain
10:55 AM 37.4 °F 29.8 °F 35.6 °F 93% 30.04 in 5.0 mi North 11.5 mph - N/A Rain Light Rain
11:15 AM 37.4 °F 30.8 °F 35.6 °F 93% 30.05 in 5.0 mi North 9.2 mph - N/A Rain Light Rain
11:35 AM 37.4 °F 30.3 °F 35.6 °F 93% 30.04 in 4.0 mi North 10.4 mph - N/A Rain Rain
11:55 AM 37.4 °F 28.9 °F 35.6 °F 93% 30.03 in 5.0 mi North 13.8 mph - N/A Rain Light Rain
12:15 PM 37.4 °F 29.8 °F 35.6 °F 93% 30.02 in 5.0 mi North 11.5 mph - N/A Rain Light Rain
12:35 PM 37.4 °F 31.4 °F 35.6 °F 93% 30.01 in 5.0 mi North 8.1 mph - N/A Rain Light Rain
12:55 PM 37.4 °F 31.4 °F 35.6 °F 93% 30.01 in 5.0 mi NNE 8.1 mph - N/A Rain Rain
1:15 PM 39.2 °F 33.0 °F 35.6 °F 87% 30.01 in 7.0 mi North 9.2 mph - N/A   Light Drizzle
1:35 PM 39.2 °F 32.5 °F 35.6 °F 87% 30.01 in 10.0 mi North 10.4 mph 16.1 mph N/A   Unknown
1:55 PM 39.2 °F 31.2 °F 35.6 °F 87% 30.01 in 10.0 mi NNW 13.8 mph - N/A   Unknown
2:15 PM 37.4 °F 27.8 °F 35.6 °F 93% 30.01 in 10.0 mi NNW 17.3 mph 23.0 mph N/A   Unknown
2:35 PM 37.4 °F 28.5 °F 35.6 °F 93% 30.01 in 10.0 mi NNW 15.0 mph 20.7 mph N/A   Unknown
2:55 PM 37.4 °F 28.2 °F 35.6 °F 93% 30.01 in 10.0 mi North 16.1 mph 20.7 mph N/A   Unknown
3:15 PM 37.4 °F 27.8 °F 35.6 °F 93% 30.02 in 10.0 mi NNW 17.3 mph 20.7 mph N/A   Unknown
3:35 PM 37.4 °F 27.5 °F 33.8 °F 87% 30.02 in 10.0 mi North 18.4 mph 21.9 mph N/A   Unknown
3:55 PM 37.4 °F 28.9 °F 33.8 °F 87% 30.03 in 10.0 mi NNW 13.8 mph 18.4 mph N/A   Unknown
4:15 PM 37.4 °F 27.5 °F 33.8 °F 87% 30.03 in 10.0 mi North 18.4 mph 23.0 mph N/A   Unknown
4:35 PM 37.4 °F 27.5 °F 33.8 °F 87% 30.05 in 10.0 mi North 18.4 mph 25.3 mph N/A   Unknown
4:55 PM 37.4 °F 29.3 °F 33.8 °F 87% 30.05 in 10.0 mi North 12.7 mph 24.2 mph N/A   Unknown
5:15 PM 37.4 °F 28.2 °F 33.8 °F 87% 30.06 in 10.0 mi North 16.1 mph 21.9 mph N/A   Unknown
5:35 PM 37.4 °F 29.3 °F 33.8 °F 87% 30.08 in 10.0 mi NNW 12.7 mph - N/A   Unknown
5:55 PM 37.4 °F 29.8 °F 33.8 °F 87% 30.08 in 10.0 mi North 11.5 mph - N/A   Unknown
6:15 PM 37.4 °F 30.3 °F 33.8 °F 87% 30.09 in 10.0 mi NNW 10.4 mph - N/A   Unknown
6:35 PM 37.4 °F 29.3 °F 33.8 °F 87% 30.10 in 10.0 mi NNW 12.7 mph - N/A   Unknown
6:55 PM 37.4 °F 30.3 °F 33.8 °F 87% 30.11 in 10.0 mi NNW 10.4 mph 17.3 mph N/A   Unknown
7:15 PM 39.2 °F 32.5 °F 33.8 °F 81% 30.11 in 10.0 mi NNW 10.4 mph - N/A   Unknown
7:35 PM 39.2 °F 32.5 °F 33.8 °F 81% 30.12 in 10.0 mi NNW 10.4 mph - N/A   Unknown
7:55 PM 39.2 °F 29.6 °F 33.8 °F 81% 30.13 in 10.0 mi North 19.6 mph 24.2 mph N/A   Unknown
8:15 PM 39.2 °F 32.5 °F 32.0 °F 75% 30.14 in 10.0 mi North 10.4 mph - N/A   Unknown
8:35 PM 37.4 °F 29.8 °F 33.8 °F 87% 30.15 in 10.0 mi NNW 11.5 mph - N/A   Unknown
8:55 PM 39.2 °F 30.8 °F 32.0 °F 75% 30.15 in 10.0 mi NNW 15.0 mph 21.9 mph N/A   Unknown
9:15 PM 37.4 °F 30.3 °F 32.0 °F 81% 30.16 in 10.0 mi NNW 10.4 mph 18.4 mph N/A   Unknown
9:35 PM 37.4 °F 29.8 °F 32.0 °F 81% 30.16 in 10.0 mi NNW 11.5 mph 17.3 mph N/A   Unknown
9:55 PM 37.4 °F 30.8 °F 32.0 °F 81% 30.17 in 10.0 mi NW 9.2 mph - N/A   Unknown
10:15 PM 37.4 °F 30.8 °F 32.0 °F 81% 30.18 in 10.0 mi NNW 9.2 mph - N/A   Unknown
10:35 PM 37.4 °F 30.3 °F 32.0 °F 81% 30.18 in 10.0 mi NNW 10.4 mph - N/A   Unknown
10:55 PM 37.4 °F 30.3 °F 32.0 °F 81% 30.18 in 10.0 mi NNW 10.4 mph - N/A   Unknown
11:15 PM 37.4 °F 29.8 °F 32.0 °F 81% 30.18 in 10.0 mi NNW 11.5 mph - N/A   Unknown
11:35 PM 37.4 °F 31.4 °F 32.0 °F 81% 30.18 in 10.0 mi NW 8.1 mph - N/A   Unknown
11:55 PM 37.4 °F 32.1 °F 32.0 °F 81% 30.19 in 10.0 mi NW 6.9 mph - N/A   Unknown